createdAt,value
2023-05-22T00:02:18.975Z,15.41
2023-05-22T00:04:47.796Z,15.37
2023-05-22T00:07:16.528Z,15.36
2023-05-22T00:09:44.887Z,15.31
2023-05-22T00:12:13.194Z,15.36
2023-05-22T00:14:42.890Z,15.32
2023-05-22T00:17:15.176Z,15.23
2023-05-22T00:19:43.862Z,15.19
2023-05-22T00:22:12.238Z,15.16
2023-05-22T00:24:40.582Z,15.13
2023-05-22T00:27:08.899Z,15.11
2023-05-22T00:29:37.263Z,15.10
2023-05-22T00:32:08.361Z,15.02
2023-05-22T00:34:36.743Z,14.98
2023-05-22T00:37:05.272Z,14.89
2023-05-22T00:39:33.624Z,14.83
2023-05-22T00:42:01.913Z,14.77
2023-05-22T00:44:30.955Z,14.67
2023-05-22T00:46:59.588Z,14.59
2023-05-22T00:49:29.826Z,14.52
2023-05-22T00:51:58.126Z,14.41
2023-05-22T00:54:26.441Z,14.32
2023-05-22T00:56:54.780Z,14.26
2023-05-22T00:59:23.116Z,14.18
2023-05-22T01:01:51.854Z,14.15
2023-05-22T01:04:20.293Z,14.07
2023-05-22T01:06:51.490Z,13.97
2023-05-22T01:09:19.900Z,13.94
2023-05-22T01:11:52.673Z,13.93
2023-05-22T01:14:25.712Z,13.85
2023-05-22T01:16:59.821Z,13.80
2023-05-22T01:19:50.675Z,13.71
2023-05-22T01:22:26.115Z,13.57
2023-05-22T01:25:00.812Z,13.54
2023-05-22T01:27:44.702Z,13.53
2023-05-22T01:30:21.208Z,13.48
2023-05-22T01:32:51.075Z,13.45
2023-05-22T01:35:20.637Z,13.41
2023-05-22T01:37:50.246Z,13.39
2023-05-22T01:40:18.779Z,13.31
2023-05-22T01:42:47.345Z,13.24
2023-05-22T01:45:15.979Z,13.18
2023-05-22T01:47:46.510Z,13.10
2023-05-22T01:50:17.459Z,13.05
2023-05-22T01:53:02.775Z,13.06
2023-05-22T01:55:36.053Z,13.04
2023-05-22T01:58:12.320Z,12.98
2023-05-22T02:00:41.607Z,12.89
2023-05-22T02:03:12.742Z,12.89
2023-05-22T02:05:42.600Z,12.89
2023-05-22T02:08:11.014Z,12.84
2023-05-22T02:10:43.309Z,12.80
2023-05-22T02:13:12.033Z,12.79
2023-05-22T02:15:40.492Z,12.75
2023-05-22T02:18:13.059Z,12.69
2023-05-22T02:20:44.233Z,12.66
2023-05-22T02:23:12.827Z,12.61
2023-05-22T02:25:41.516Z,12.61
2023-05-22T02:28:09.802Z,12.63
2023-05-22T02:30:38.337Z,12.61
2023-05-22T02:33:06.919Z,12.54
2023-05-22T02:35:35.849Z,12.50
2023-05-22T02:38:06.678Z,12.45
2023-05-22T02:40:35.390Z,12.50
2023-05-22T02:43:03.896Z,12.48
2023-05-22T02:45:32.621Z,12.42
2023-05-22T02:48:02.193Z,12.36
2023-05-22T02:50:31.167Z,12.33
2023-05-22T02:52:59.767Z,12.32
2023-05-22T02:55:29.679Z,12.26
2023-05-22T02:57:58.058Z,12.27
2023-05-22T03:00:26.752Z,12.21
2023-05-22T03:02:56.691Z,12.17
2023-05-22T03:05:25.093Z,12.09
2023-05-22T03:07:53.493Z,12.07
2023-05-22T03:10:21.887Z,12.01
2023-05-22T03:12:51.990Z,12.01
2023-05-22T03:15:20.581Z,11.99
2023-05-22T03:17:50.350Z,12.00
2023-05-22T03:20:18.946Z,12.00
2023-05-22T03:22:47.312Z,11.97
2023-05-22T03:25:16.554Z,11.95
2023-05-22T03:27:45.101Z,11.91
2023-05-22T03:30:16.752Z,11.89
2023-05-22T03:32:55.037Z,11.89
2023-05-22T03:35:25.334Z,11.87
2023-05-22T03:37:53.830Z,11.86
2023-05-22T03:40:22.278Z,11.84
2023-05-22T03:42:50.883Z,11.85
2023-05-22T03:45:21.361Z,11.82
2023-05-22T03:47:50.159Z,11.84
2023-05-22T03:50:18.509Z,11.85
2023-05-22T03:52:47.176Z,11.83
2023-05-22T03:55:16.379Z,11.84
2023-05-22T03:57:45.174Z,11.87
2023-05-22T04:00:17.105Z,11.88
2023-05-22T04:02:48.088Z,11.92
2023-05-22T04:05:16.656Z,11.94
2023-05-22T04:07:45.238Z,11.92
2023-05-22T04:10:13.801Z,11.95
2023-05-22T04:12:42.583Z,11.97
2023-05-22T04:15:11.289Z,12.04
2023-05-22T04:17:40.547Z,12.11
2023-05-22T04:20:11.332Z,12.19
2023-05-22T04:22:41.358Z,12.26
2023-05-22T04:25:11.314Z,12.41
2023-05-22T04:27:40.256Z,12.52
2023-05-22T04:30:10.612Z,12.54
2023-05-22T04:32:41.010Z,12.66
2023-05-22T04:35:12.374Z,12.78
2023-05-22T04:37:42.391Z,12.81
2023-05-22T04:40:11.550Z,12.85
2023-05-22T04:42:40.596Z,12.90
2023-05-22T04:45:10.021Z,12.93
2023-05-22T04:47:41.749Z,12.97
2023-05-22T04:50:14.405Z,13.06
2023-05-22T04:52:43.470Z,13.20
2023-05-22T04:55:13.041Z,13.35
2023-05-22T04:57:41.353Z,13.54
2023-05-22T05:00:10.950Z,13.68
2023-05-22T05:02:40.303Z,13.84
2023-05-22T05:05:09.601Z,14.00
2023-05-22T05:07:43.932Z,14.20
2023-05-22T05:10:12.450Z,14.38
2023-05-22T05:12:40.749Z,14.60
2023-05-22T05:15:10.008Z,14.77
2023-05-22T05:17:38.485Z,14.95
2023-05-22T05:20:08.734Z,15.18
2023-05-22T05:22:37.529Z,15.37
2023-05-22T05:25:10.935Z,15.54
2023-05-22T05:27:40.727Z,15.71
2023-05-22T05:30:10.923Z,15.88
2023-05-22T05:32:59.516Z,16.07
2023-05-22T05:35:36.489Z,16.24
2023-05-22T05:38:09.921Z,16.42
2023-05-22T05:40:42.270Z,16.57
2023-05-22T05:43:14.124Z,16.73
2023-05-22T05:45:43.785Z,16.90
2023-05-22T05:48:13.059Z,17.02
2023-05-22T05:50:44.992Z,17.22
2023-05-22T05:53:13.283Z,17.45
2023-05-22T05:55:47.621Z,17.68
2023-05-22T05:58:16.274Z,17.88
2023-05-22T06:00:56.432Z,18.11
2023-05-22T06:03:26.280Z,18.30
2023-05-22T06:06:03.707Z,18.46
2023-05-22T06:08:58.374Z,18.69
2023-05-22T06:11:33.845Z,18.88
2023-05-22T06:14:04.134Z,19.16
2023-05-22T06:16:33.141Z,19.41
2023-05-22T06:19:01.751Z,19.57
2023-05-22T06:21:30.078Z,19.68
2023-05-22T06:23:58.936Z,19.77
2023-05-22T06:26:27.811Z,19.88
2023-05-22T06:28:57.629Z,20.00
2023-05-22T06:31:26.592Z,20.08
2023-05-22T06:33:57.900Z,20.17
2023-05-22T06:36:27.145Z,20.31
2023-05-22T06:38:56.533Z,20.42
2023-05-22T06:41:45.172Z,20.60
2023-05-22T06:44:17.211Z,20.74
2023-05-22T06:46:45.511Z,20.90
2023-05-22T06:49:20.937Z,20.96
2023-05-22T06:51:53.182Z,21.04
2023-05-22T06:54:22.690Z,21.25
2023-05-22T06:56:57.048Z,21.42
2023-05-22T06:59:29.710Z,21.66
2023-05-22T07:02:07.224Z,21.95
2023-05-22T07:05:00.230Z,22.14
2023-05-22T07:07:45.134Z,22.31
2023-05-22T07:10:13.806Z,22.50
2023-05-22T07:12:42.249Z,22.72
2023-05-22T07:15:14.735Z,22.86
2023-05-22T07:17:49.492Z,23.03
2023-05-22T07:20:19.600Z,23.35
2023-05-22T07:23:06.709Z,23.66
2023-05-22T07:25:37.653Z,23.86
2023-05-22T07:28:09.095Z,24.08
2023-05-22T07:30:46.095Z,24.25
2023-05-22T07:33:14.615Z,24.38
2023-05-22T07:35:45.704Z,24.35
2023-05-22T07:38:14.430Z,24.42
2023-05-22T07:40:50.598Z,24.47
2023-05-22T07:43:19.477Z,24.68
2023-05-22T07:45:49.747Z,25.00
2023-05-22T07:48:21.480Z,25.35
2023-05-22T07:50:50.108Z,25.39
2023-05-22T07:53:18.416Z,25.59
2023-05-22T07:55:50.956Z,25.60
2023-05-22T07:58:20.130Z,25.66
2023-05-22T08:00:52.483Z,25.87
2023-05-22T08:03:23.836Z,25.97
2023-05-22T08:05:52.788Z,25.94
2023-05-22T08:08:21.167Z,25.92
2023-05-22T08:11:03.054Z,25.94
2023-05-22T08:13:32.454Z,26.14
2023-05-22T08:16:02.521Z,26.47
2023-05-22T08:18:30.859Z,26.47
2023-05-22T08:21:00.318Z,26.51
2023-05-22T08:23:28.713Z,26.36
2023-05-22T08:25:57.198Z,26.32
2023-05-22T08:28:25.512Z,26.28
2023-05-22T08:30:54.508Z,26.10
2023-05-22T08:33:24.463Z,26.18
2023-05-22T08:35:52.803Z,26.21
2023-05-22T08:38:21.084Z,26.23
2023-05-22T08:40:49.931Z,26.41
2023-05-22T08:43:21.630Z,26.75
2023-05-22T08:45:50.680Z,26.89
2023-05-22T08:48:19.004Z,26.98
2023-05-22T08:50:48.885Z,27.01
2023-05-22T08:53:18.029Z,26.94
2023-05-22T08:55:46.696Z,27.09
2023-05-22T08:58:16.072Z,27.24
2023-05-22T09:00:44.508Z,27.39
2023-05-22T09:03:15.316Z,27.47
2023-05-22T09:05:45.430Z,27.74
2023-05-22T09:08:20.485Z,27.67
2023-05-22T09:10:49.906Z,27.79
2023-05-22T09:13:28.132Z,27.70
2023-05-22T09:15:59.771Z,27.27
2023-05-22T09:18:30.882Z,27.41
2023-05-22T09:21:00.079Z,27.41
2023-05-22T09:23:30.718Z,27.10
2023-05-22T09:25:59.678Z,26.70
2023-05-22T09:28:29.039Z,26.68
2023-05-22T09:30:57.407Z,26.89
2023-05-22T09:33:25.973Z,27.05
2023-05-22T09:35:54.543Z,27.14
2023-05-22T09:38:23.510Z,27.15
2023-05-22T09:40:55.839Z,27.27
2023-05-22T09:43:25.422Z,27.33
2023-05-22T09:45:58.099Z,27.15
2023-05-22T09:48:26.836Z,26.94
2023-05-22T09:50:56.083Z,26.81
2023-05-22T09:53:27.441Z,26.62
2023-05-22T09:55:58.100Z,26.48
2023-05-22T09:58:28.266Z,26.31
2023-05-22T10:00:57.741Z,26.58
2023-05-22T10:03:27.182Z,26.49
2023-05-22T10:05:56.337Z,26.23
2023-05-22T10:08:26.999Z,25.94
2023-05-22T10:10:55.318Z,25.96
2023-05-22T10:13:25.178Z,25.88
2023-05-22T10:15:53.486Z,25.98
2023-05-22T10:18:22.187Z,26.56
2023-05-22T10:20:50.476Z,27.36
2023-05-22T10:23:19.335Z,27.70
2023-05-22T10:25:47.741Z,27.35
2023-05-22T10:28:18.147Z,27.26
2023-05-22T10:30:51.302Z,27.45
2023-05-22T10:33:26.423Z,28.26
2023-05-22T10:35:56.652Z,28.83
2023-05-22T10:38:47.150Z,29.28
2023-05-22T10:41:15.437Z,29.77
2023-05-22T10:43:43.986Z,30.01
2023-05-22T10:46:14.666Z,30.41
2023-05-22T10:48:45.559Z,30.47
2023-05-22T10:51:14.028Z,30.64
2023-05-22T10:53:45.392Z,31.02
2023-05-22T10:56:14.465Z,30.79
2023-05-22T10:58:45.702Z,30.47
2023-05-22T11:01:16.642Z,30.69
2023-05-22T11:03:58.362Z,30.29
2023-05-22T11:06:39.366Z,29.72
2023-05-22T11:09:21.871Z,29.22
2023-05-22T11:11:50.576Z,28.74
2023-05-22T11:14:21.308Z,28.49
2023-05-22T11:16:51.087Z,28.11
2023-05-22T11:19:23.891Z,28.10
2023-05-22T11:21:52.526Z,28.68
2023-05-22T11:24:20.876Z,28.76
2023-05-22T11:27:02.359Z,28.41
2023-05-22T11:29:30.808Z,27.94
2023-05-22T11:32:00.826Z,27.37
2023-05-22T11:34:29.222Z,27.12
2023-05-22T11:37:00.831Z,26.83
2023-05-22T11:39:29.422Z,26.60
2023-05-22T11:41:57.955Z,26.62
2023-05-22T11:44:28.542Z,26.98
2023-05-22T11:46:56.910Z,27.12
2023-05-22T11:49:26.729Z,27.02
2023-05-22T11:51:55.062Z,26.96
2023-05-22T11:54:24.396Z,27.15
2023-05-22T11:56:52.689Z,27.12
2023-05-22T11:59:22.697Z,27.14
2023-05-22T12:01:51.028Z,27.18
2023-05-22T12:04:19.429Z,26.99
2023-05-22T12:06:49.907Z,26.88
2023-05-22T12:09:18.348Z,26.80
2023-05-22T12:11:47.648Z,26.93
2023-05-22T12:14:16.006Z,27.21
2023-05-22T12:16:44.737Z,27.52
2023-05-22T12:19:13.522Z,27.80
2023-05-22T12:21:42.370Z,28.09
2023-05-22T12:24:12.170Z,28.17
2023-05-22T12:26:40.562Z,28.07
2023-05-22T12:29:08.874Z,28.06
2023-05-22T12:31:38.580Z,28.02
2023-05-22T12:34:08.624Z,27.90
2023-05-22T12:36:37.176Z,27.59
2023-05-22T12:39:09.288Z,27.27
2023-05-22T12:41:39.037Z,27.27
2023-05-22T12:44:07.430Z,27.27
2023-05-22T12:46:35.929Z,27.39
2023-05-22T12:49:04.524Z,27.37
2023-05-22T12:51:33.535Z,27.38
2023-05-22T12:54:02.135Z,27.49
2023-05-22T12:56:30.471Z,27.71
2023-05-22T12:59:00.184Z,27.73
2023-05-22T13:01:28.541Z,27.74
2023-05-22T13:03:56.866Z,27.66
2023-05-22T13:06:25.241Z,27.67
2023-05-22T13:08:53.739Z,27.57
2023-05-22T13:11:23.529Z,27.56
2023-05-22T13:13:51.913Z,27.66
2023-05-22T13:16:22.822Z,27.90
2023-05-22T13:18:51.390Z,27.90
2023-05-22T13:21:19.780Z,27.81
2023-05-22T13:23:48.073Z,27.56
2023-05-22T13:26:16.402Z,27.69
2023-05-22T13:28:45.146Z,27.85
2023-05-22T13:31:13.540Z,28.04
2023-05-22T13:33:43.340Z,28.34
2023-05-22T13:36:11.724Z,28.69
2023-05-22T13:38:40.007Z,28.63
2023-05-22T13:41:08.585Z,28.73
2023-05-22T13:43:36.970Z,28.73
2023-05-22T13:46:05.341Z,28.69
2023-05-22T13:48:33.666Z,28.45
2023-05-22T13:51:03.549Z,28.15
2023-05-22T13:53:31.958Z,27.82
2023-05-22T13:56:02.128Z,27.79
2023-05-22T13:58:30.508Z,28.15
2023-05-22T14:00:59.194Z,28.48
2023-05-22T14:03:27.614Z,28.78
2023-05-22T14:05:56.031Z,28.82
2023-05-22T14:08:26.391Z,28.43
2023-05-22T14:10:54.727Z,27.96
2023-05-22T14:13:23.077Z,27.87
2023-05-22T14:15:51.442Z,27.76
2023-05-22T14:18:19.912Z,27.62
2023-05-22T14:20:48.265Z,27.50
2023-05-22T14:23:17.167Z,27.31
2023-05-22T14:25:46.878Z,27.06
2023-05-22T14:28:15.215Z,26.88
2023-05-22T14:30:44.102Z,26.70
2023-05-22T14:33:12.595Z,26.53
2023-05-22T14:35:41.509Z,26.45
2023-05-22T14:38:10.083Z,26.42
2023-05-22T14:40:38.500Z,26.30
2023-05-22T14:43:08.255Z,26.19
2023-05-22T14:45:36.558Z,26.16
2023-05-22T14:48:05.465Z,26.14
2023-05-22T14:50:33.862Z,26.11
2023-05-22T14:53:02.198Z,26.07
2023-05-22T14:55:31.601Z,26.02
2023-05-22T14:57:59.916Z,26.03
2023-05-22T15:00:29.781Z,25.98
2023-05-22T15:02:58.188Z,25.96
2023-05-22T15:05:26.995Z,25.99
2023-05-22T15:07:58.468Z,26.19
2023-05-22T15:10:26.841Z,26.51
2023-05-22T15:12:55.544Z,26.68
2023-05-22T15:15:23.974Z,26.87
2023-05-22T15:17:53.764Z,27.03
2023-05-22T15:20:22.108Z,26.95
2023-05-22T15:22:50.383Z,26.84
2023-05-22T15:25:18.710Z,26.93
2023-05-22T15:27:46.992Z,27.06
2023-05-22T15:30:17.134Z,27.15
2023-05-22T15:32:45.700Z,26.83
2023-05-22T15:35:15.487Z,26.76
2023-05-22T15:37:43.805Z,26.75
2023-05-22T15:40:16.463Z,26.78
2023-05-22T15:42:44.889Z,26.68
2023-05-22T15:45:13.818Z,26.39
2023-05-22T15:47:42.620Z,26.27
2023-05-22T15:50:11.555Z,26.14
2023-05-22T15:52:41.255Z,26.41
2023-05-22T15:55:09.978Z,26.56
2023-05-22T15:57:38.790Z,26.63
2023-05-22T16:00:08.668Z,26.63
2023-05-22T16:02:37.048Z,26.48
2023-05-22T16:05:05.870Z,26.23
2023-05-22T16:07:34.508Z,25.89
2023-05-22T16:10:04.646Z,25.67
2023-05-22T16:12:33.243Z,25.52
2023-05-22T16:15:02.800Z,25.35
2023-05-22T16:17:32.301Z,25.25
2023-05-22T16:20:00.632Z,25.24
2023-05-22T16:22:40.046Z,25.25
2023-05-22T16:25:17.875Z,25.14
2023-05-22T16:27:46.257Z,24.91
2023-05-22T16:30:16.965Z,24.76
2023-05-22T16:32:46.180Z,24.60
2023-05-22T16:35:14.594Z,24.48
2023-05-22T16:37:42.914Z,24.44
2023-05-22T16:40:11.985Z,24.35
2023-05-22T16:42:41.738Z,24.32
2023-05-22T16:45:10.594Z,24.25
2023-05-22T16:47:38.934Z,24.17
2023-05-22T16:50:09.038Z,24.13
2023-05-22T16:52:38.468Z,24.05
2023-05-22T16:55:07.711Z,23.98
2023-05-22T16:57:36.029Z,23.87
2023-05-22T17:00:07.321Z,23.77
2023-05-22T17:02:35.965Z,23.63
2023-05-22T17:05:04.593Z,23.55
2023-05-22T17:07:33.597Z,23.41
2023-05-22T17:10:02.401Z,23.26
2023-05-22T17:12:30.936Z,23.08
2023-05-22T17:14:59.350Z,22.79
2023-05-22T17:17:29.064Z,22.28
2023-05-22T17:19:58.638Z,21.65
2023-05-22T17:22:26.982Z,21.13
2023-05-22T17:24:55.490Z,20.80
2023-05-22T17:27:34.860Z,20.64
2023-05-22T17:30:04.739Z,20.48
2023-05-22T17:32:34.638Z,20.27
2023-05-22T17:35:05.000Z,20.04
2023-05-22T17:37:33.383Z,19.87
2023-05-22T17:40:01.661Z,19.75
2023-05-22T17:42:30.052Z,19.61
2023-05-22T17:44:58.449Z,19.51
2023-05-22T17:47:27.199Z,19.39
2023-05-22T17:49:56.980Z,19.30
2023-05-22T17:52:25.284Z,19.16
2023-05-22T17:54:55.936Z,19.05
2023-05-22T17:57:24.326Z,18.89
2023-05-22T17:59:52.609Z,18.82
2023-05-22T18:02:20.988Z,18.64
2023-05-22T18:04:49.682Z,18.57
2023-05-22T18:07:20.037Z,18.52
2023-05-22T18:09:48.413Z,18.52
2023-05-22T18:12:31.203Z,18.47
2023-05-22T18:15:00.312Z,18.36
2023-05-22T18:17:29.183Z,18.30
2023-05-22T18:19:57.552Z,18.24
2023-05-22T18:22:27.310Z,18.17
2023-05-22T18:24:55.589Z,18.11
2023-05-22T18:27:23.897Z,18.03
2023-05-22T18:29:52.525Z,17.99
2023-05-22T18:32:20.824Z,17.94
2023-05-22T18:34:49.747Z,17.88
2023-05-22T18:37:19.032Z,17.85
2023-05-22T18:39:48.762Z,17.76
2023-05-22T18:42:17.624Z,17.72
2023-05-22T18:44:48.726Z,17.74
2023-05-22T18:47:17.536Z,17.71
2023-05-22T18:49:45.965Z,17.71
2023-05-22T18:52:14.376Z,17.74
2023-05-22T18:54:42.714Z,17.64
2023-05-22T18:57:13.911Z,17.61
2023-05-22T18:59:43.672Z,17.59
2023-05-22T19:02:12.011Z,17.55
2023-05-22T19:04:40.342Z,17.51
2023-05-22T19:07:09.437Z,17.48
2023-05-22T19:09:38.275Z,17.54
2023-05-22T19:12:07.522Z,17.56
2023-05-22T19:14:37.246Z,17.50
2023-05-22T19:17:05.936Z,17.49
2023-05-22T19:19:35.771Z,17.41
2023-05-22T19:22:04.277Z,17.40
2023-05-22T19:24:33.072Z,17.45
2023-05-22T19:27:01.484Z,17.42
2023-05-22T19:29:29.846Z,17.36
2023-05-22T19:31:59.614Z,17.38
2023-05-22T19:34:28.429Z,17.42
2023-05-22T19:36:57.988Z,17.39
2023-05-22T19:39:27.384Z,17.32
2023-05-22T19:41:55.753Z,17.27
2023-05-22T19:44:24.115Z,17.23
2023-05-22T19:46:52.766Z,17.21
2023-05-22T19:49:22.474Z,17.19
2023-05-22T19:51:52.542Z,17.18
2023-05-22T19:54:22.524Z,17.14
2023-05-22T19:56:51.161Z,17.14
2023-05-22T19:59:20.001Z,17.10
2023-05-22T20:01:49.964Z,17.07
2023-05-22T20:04:19.425Z,17.07
2023-05-22T20:06:49.249Z,17.05
2023-05-22T20:09:17.618Z,17.04
2023-05-22T20:11:46.461Z,17.03
2023-05-22T20:14:15.221Z,17.02
2023-05-22T20:16:44.127Z,17.00
2023-05-22T20:19:14.329Z,16.99
2023-05-22T20:21:43.543Z,16.98
2023-05-22T20:24:19.217Z,16.92
2023-05-22T20:26:47.518Z,16.91
2023-05-22T20:29:15.818Z,16.90
2023-05-22T20:31:44.197Z,16.88
2023-05-22T20:34:12.723Z,16.87
2023-05-22T20:36:42.628Z,16.86
2023-05-22T20:39:12.011Z,16.83
2023-05-22T20:41:41.674Z,16.79
2023-05-22T20:44:10.461Z,16.76
2023-05-22T20:46:39.044Z,16.72
2023-05-22T20:49:07.327Z,16.68
2023-05-22T20:51:35.617Z,16.66
2023-05-22T20:54:03.943Z,16.61
2023-05-22T20:56:32.435Z,16.56
2023-05-22T20:59:02.409Z,16.49
2023-05-22T21:01:31.202Z,16.46
2023-05-22T21:03:59.567Z,16.41
2023-05-22T21:06:27.838Z,16.37
2023-05-22T21:08:59.815Z,16.38
2023-05-22T21:11:28.062Z,16.34
2023-05-22T21:13:56.586Z,16.30
2023-05-22T21:16:26.462Z,16.24
2023-05-22T21:18:54.833Z,16.21
2023-05-22T21:21:23.119Z,16.17
2023-05-22T21:23:52.543Z,16.13
2023-05-22T21:26:23.087Z,16.11
2023-05-22T21:28:51.756Z,16.10
2023-05-22T21:31:20.113Z,16.08
2023-05-22T21:33:49.842Z,16.14
2023-05-22T21:36:18.113Z,16.14
2023-05-22T21:38:46.464Z,16.17
2023-05-22T21:41:16.158Z,16.16
2023-05-22T21:43:45.523Z,16.12
2023-05-22T21:46:13.861Z,16.11
2023-05-22T21:48:42.239Z,16.12
2023-05-22T21:51:12.017Z,16.11
2023-05-22T21:53:40.387Z,16.11
2023-05-22T21:56:09.585Z,16.18
2023-05-22T21:58:37.820Z,16.27
2023-05-22T22:01:06.576Z,16.34
2023-05-22T22:03:35.250Z,16.37
2023-05-22T22:06:03.589Z,16.39
2023-05-22T22:08:33.801Z,16.41
2023-05-22T22:11:02.049Z,16.44
2023-05-22T22:13:30.356Z,16.46
2023-05-22T22:15:59.526Z,16.47
2023-05-22T22:18:27.906Z,16.46
2023-05-22T22:20:56.254Z,16.45
2023-05-22T22:23:24.891Z,16.41
2023-05-22T22:25:54.939Z,16.36
2023-05-22T22:28:23.331Z,16.36
2023-05-22T22:30:55.026Z,16.34
2023-05-22T22:33:23.716Z,16.22
2023-05-22T22:35:52.553Z,15.99
2023-05-22T22:38:21.190Z,15.83
2023-05-22T22:40:49.497Z,15.74
2023-05-22T22:43:19.971Z,15.72
2023-05-22T22:45:48.408Z,15.57
2023-05-22T22:48:17.015Z,15.51
2023-05-22T22:50:46.899Z,15.44
2023-05-22T22:53:15.218Z,15.38
2023-05-22T22:55:44.128Z,15.31
2023-05-22T22:58:12.577Z,15.33
2023-05-22T23:00:42.571Z,15.32
2023-05-22T23:03:11.461Z,15.37
2023-05-22T23:05:40.144Z,15.41
2023-05-22T23:08:08.825Z,15.46
2023-05-22T23:10:37.192Z,15.47
2023-05-22T23:13:05.511Z,15.46
2023-05-22T23:15:34.923Z,15.45
2023-05-22T23:18:05.461Z,15.49
2023-05-22T23:20:33.810Z,15.45
2023-05-22T23:23:02.118Z,15.35
2023-05-22T23:25:30.476Z,15.27
2023-05-22T23:27:58.850Z,15.26
2023-05-22T23:30:27.406Z,15.27
2023-05-22T23:32:55.822Z,15.29
2023-05-22T23:35:25.619Z,15.36
2023-05-22T23:37:53.922Z,15.35
2023-05-22T23:40:22.233Z,15.34
2023-05-22T23:42:50.994Z,15.33
2023-05-22T23:45:19.310Z,15.31
2023-05-22T23:47:47.661Z,15.28
2023-05-22T23:50:16.125Z,15.27
2023-05-22T23:52:47.364Z,15.24
2023-05-22T23:55:15.727Z,15.21
2023-05-22T23:57:44.308Z,15.20
